createdAt,value
2023-04-21T11:01:49.633Z,151.50
2023-04-21T11:03:21.826Z,140.75
2023-04-21T11:04:54.457Z,162.25
2023-04-21T11:06:27.301Z,164.75
2023-04-21T11:08:07.266Z,151.50
2023-04-21T11:09:40.248Z,160.50
2023-04-21T11:11:13.124Z,161.00
2023-04-21T11:12:45.040Z,170.25
2023-04-21T11:14:18.101Z,164.25
2023-04-21T11:15:57.264Z,153.75
2023-04-21T11:17:29.460Z,145.75
2023-04-21T11:19:01.596Z,152.00
2023-04-21T11:20:33.530Z,152.00
2023-04-21T11:22:05.913Z,159.00
2023-04-21T11:23:44.012Z,131.00
2023-04-21T11:25:19.389Z,138.50
2023-04-21T11:26:51.752Z,146.25
2023-04-21T11:28:23.911Z,141.50
2023-04-21T11:29:56.011Z,144.75
2023-04-21T11:31:31.273Z,130.75
2023-04-21T11:33:03.432Z,139.50
2023-04-21T11:34:38.674Z,135.75
2023-04-21T11:36:10.587Z,129.25
2023-04-21T11:37:42.575Z,130.50
2023-04-21T11:39:16.649Z,132.00
2023-04-21T11:40:48.794Z,132.75
2023-04-21T11:42:23.580Z,129.75
2023-04-21T11:43:55.750Z,110.80
2023-04-21T11:45:27.983Z,116.75
2023-04-21T11:46:59.974Z,123.00
2023-04-21T11:48:34.718Z,118.20
2023-04-21T11:50:07.239Z,128.00
2023-04-21T11:51:40.313Z,128.75
2023-04-21T11:53:12.368Z,114.00
2023-04-21T11:54:44.303Z,135.25
2023-04-21T11:56:21.934Z,133.50
2023-04-21T11:57:53.841Z,125.00
2023-04-21T11:59:26.657Z,102.40
2023-04-21T12:00:58.755Z,103.60
2023-04-21T12:02:31.588Z,98.80
2023-04-21T12:04:04.028Z,105.60
2023-04-21T12:05:36.726Z,88.25
2023-04-21T12:07:08.637Z,94.25
2023-04-21T12:08:40.898Z,88.75
2023-04-21T12:10:20.001Z,100.25
2023-04-21T12:11:54.075Z,114.75
2023-04-21T12:13:29.704Z,108.00
2023-04-21T12:15:03.598Z,108.20
2023-04-21T12:16:37.089Z,119.40
2023-04-21T12:18:13.082Z,112.20
2023-04-21T12:19:45.315Z,109.40
2023-04-21T12:21:17.832Z,106.40
2023-04-21T12:22:49.900Z,95.00
2023-04-21T12:24:21.834Z,110.40
2023-04-21T12:25:53.794Z,116.60
2023-04-21T12:27:27.205Z,114.60
2023-04-21T12:29:00.773Z,106.80
2023-04-21T12:30:34.051Z,111.60
2023-04-21T12:32:09.452Z,102.00
2023-04-21T12:33:41.953Z,121.25
2023-04-21T12:35:14.087Z,105.50
2023-04-21T12:36:46.031Z,113.25
2023-04-21T12:38:17.952Z,112.40
2023-04-21T12:39:49.979Z,122.75
2023-04-21T12:41:22.059Z,99.00
2023-04-21T12:42:54.009Z,108.00
2023-04-21T12:44:26.092Z,111.80
2023-04-21T12:45:58.076Z,109.60
2023-04-21T12:47:30.532Z,123.25
2023-04-21T12:49:03.950Z,102.80
2023-04-21T12:50:35.901Z,105.60
2023-04-21T12:52:07.902Z,99.40
2023-04-21T12:53:39.883Z,110.80
2023-04-21T12:55:13.709Z,105.20
2023-04-21T12:56:46.236Z,95.00
2023-04-21T12:58:18.137Z,96.25
2023-04-21T12:59:50.051Z,91.50
2023-04-21T13:01:22.323Z,91.25
2023-04-21T13:02:54.446Z,97.25
2023-04-21T13:04:26.770Z,93.50
2023-04-21T13:05:58.965Z,89.50
2023-04-21T13:07:31.619Z,84.50
2023-04-21T13:09:03.688Z,82.50
2023-04-21T13:10:35.603Z,86.50
2023-04-21T13:12:07.617Z,84.50
2023-04-21T13:13:40.218Z,82.50
2023-04-21T13:15:12.372Z,98.75
2023-04-21T13:16:44.337Z,94.25
2023-04-21T13:18:17.412Z,93.50
2023-04-21T13:19:49.650Z,93.75
2023-04-21T13:21:21.637Z,80.75
2023-04-21T13:22:53.549Z,88.50
2023-04-21T13:24:27.018Z,96.75
2023-04-21T13:25:59.000Z,91.00
2023-04-21T13:27:31.038Z,96.00
2023-04-21T13:29:03.641Z,95.50
2023-04-21T13:30:36.954Z,93.25
2023-04-21T13:32:09.068Z,100.25
2023-04-21T13:33:41.382Z,99.75
2023-04-21T13:35:13.407Z,99.75
2023-04-21T13:36:45.706Z,98.75
2023-04-21T13:38:17.799Z,87.25
2023-04-21T13:39:49.795Z,90.75
2023-04-21T13:41:21.690Z,83.25
2023-04-21T13:42:54.118Z,87.50
2023-04-21T13:44:26.156Z,86.00
2023-04-21T13:45:58.059Z,82.75
2023-04-21T13:47:33.589Z,94.00
2023-04-21T13:49:06.906Z,75.75
2023-04-21T13:50:39.667Z,82.50
2023-04-21T13:52:11.756Z,106.20
2023-04-21T13:53:43.575Z,119.20
2023-04-21T13:55:15.627Z,111.80
2023-04-21T13:56:47.592Z,98.40
2023-04-21T13:58:19.589Z,97.50
2023-04-21T13:59:51.614Z,101.20
2023-04-21T14:01:23.636Z,111.00
2023-04-21T14:02:56.206Z,98.00
2023-04-21T14:04:28.700Z,94.75
2023-04-21T14:06:00.759Z,80.25
2023-04-21T14:07:32.992Z,86.50
2023-04-21T14:09:06.692Z,76.50
2023-04-21T14:10:38.911Z,77.75
2023-04-21T14:12:11.446Z,80.50
2023-04-21T14:13:52.252Z,82.25
2023-04-21T14:15:35.481Z,89.50
2023-04-21T14:17:08.200Z,72.50
2023-04-21T14:18:44.570Z,78.00
2023-04-21T14:20:16.510Z,71.00
2023-04-21T14:21:48.542Z,69.00
2023-04-21T14:23:20.477Z,71.25
2023-04-21T14:24:52.649Z,66.50
2023-04-21T14:26:24.788Z,68.00
2023-04-21T14:27:57.024Z,65.75
2023-04-21T14:29:29.056Z,63.00
2023-04-21T14:31:01.208Z,65.25
2023-04-21T14:32:33.179Z,57.40
2023-04-21T14:34:05.186Z,47.80
2023-04-21T14:35:37.712Z,44.00
2023-04-21T14:37:09.721Z,42.60
2023-04-21T14:38:42.855Z,47.00
2023-04-21T14:40:14.899Z,45.00
2023-04-21T14:41:47.088Z,29.00
2023-04-21T14:43:19.253Z,32.60
2023-04-21T14:44:51.377Z,38.80
2023-04-21T14:46:23.501Z,39.00
2023-04-21T14:47:55.600Z,38.40
2023-04-21T14:49:27.679Z,36.60
2023-04-21T14:51:00.097Z,34.00
2023-04-21T14:52:32.709Z,39.60
2023-04-21T14:54:04.715Z,39.40
2023-04-21T14:55:36.840Z,30.00
2023-04-21T14:57:19.802Z,32.00
2023-04-21T14:58:52.898Z,29.80
2023-04-21T15:00:26.077Z,32.80
2023-04-21T15:01:58.311Z,36.60
2023-04-21T15:03:30.638Z,34.60
2023-04-21T15:05:03.773Z,32.80
2023-04-21T15:06:35.897Z,31.20
2023-04-21T15:08:07.882Z,28.60
2023-04-21T15:09:40.205Z,32.20
2023-04-21T15:11:12.178Z,29.40
2023-04-21T15:12:44.261Z,28.60
2023-04-21T15:14:16.416Z,26.20
2023-04-21T15:15:48.341Z,25.80
2023-04-21T15:17:20.264Z,28.00
2023-04-21T15:18:52.398Z,35.20
2023-04-21T15:20:32.703Z,28.20
2023-04-21T15:22:12.898Z,27.00
2023-04-21T15:23:44.776Z,30.00
2023-04-21T15:25:16.781Z,17.40
2023-04-21T15:26:48.822Z,28.60
2023-04-21T15:28:20.812Z,26.20
2023-04-21T15:29:52.834Z,18.40
2023-04-21T15:31:25.062Z,29.00
2023-04-21T15:32:56.982Z,23.60
2023-04-21T15:34:29.239Z,26.00
2023-04-21T15:36:01.218Z,23.20
2023-04-21T15:37:33.154Z,28.40
2023-04-21T15:39:05.108Z,27.00
2023-04-21T15:40:46.399Z,29.00
2023-04-21T15:42:25.291Z,20.60
2023-04-21T15:43:58.462Z,24.80
2023-04-21T15:45:30.455Z,24.80
2023-04-21T15:47:02.437Z,27.20
2023-04-21T15:48:34.592Z,17.80
2023-04-21T15:50:07.117Z,23.60
2023-04-21T15:51:39.018Z,16.20
2023-04-21T15:53:11.110Z,22.40
2023-04-21T15:54:43.395Z,24.80
2023-04-21T15:56:15.905Z,23.00
2023-04-21T15:57:47.796Z,23.60
2023-04-21T15:59:19.768Z,21.00
2023-04-21T16:00:51.621Z,26.00
2023-04-21T16:02:24.415Z,19.40
2023-04-21T16:03:56.704Z,20.80
2023-04-21T16:05:29.327Z,21.00
2023-04-21T16:07:01.557Z,21.60
2023-04-21T16:08:33.654Z,23.40
2023-04-21T16:10:06.882Z,17.40
2023-04-21T16:11:38.938Z,22.40
2023-04-21T16:13:10.902Z,15.20
2023-04-21T16:14:53.525Z,15.40
2023-04-21T16:16:29.346Z,19.60
2023-04-21T16:18:04.141Z,20.80
2023-04-21T16:19:36.219Z,13.60
2023-04-21T16:21:08.385Z,19.00
2023-04-21T16:22:40.490Z,20.80
2023-04-21T16:24:12.550Z,20.00
2023-04-21T16:25:44.864Z,19.60
2023-04-21T16:27:17.128Z,17.20
2023-04-21T16:28:49.250Z,22.20
2023-04-21T16:30:21.311Z,19.40
2023-04-21T16:31:53.331Z,19.60
2023-04-21T16:33:25.290Z,20.00
2023-04-21T16:34:57.266Z,18.40
2023-04-21T16:36:31.462Z,15.60
2023-04-21T16:38:03.831Z,17.80
2023-04-21T16:39:35.904Z,15.20
2023-04-21T16:41:07.767Z,15.00
2023-04-21T16:42:40.063Z,16.00
2023-04-21T16:44:12.153Z,16.00
2023-04-21T16:45:44.138Z,17.20
2023-04-21T16:47:16.220Z,17.60
2023-04-21T16:48:48.305Z,14.60
2023-04-21T16:50:20.388Z,17.20
2023-04-21T16:51:52.318Z,16.60
2023-04-21T16:53:25.867Z,15.40
2023-04-21T16:54:57.881Z,17.20
2023-04-21T16:56:29.822Z,14.80
2023-04-21T16:58:01.701Z,16.00
2023-04-21T16:59:33.699Z,15.40
2023-04-21T17:01:07.760Z,17.40
2023-04-21T17:02:39.853Z,13.80
2023-04-21T17:04:14.180Z,17.20
2023-04-21T17:05:46.336Z,16.20
2023-04-21T17:07:18.484Z,18.20
2023-04-21T17:08:50.657Z,16.80
2023-04-21T17:10:22.647Z,13.40
2023-04-21T17:11:55.082Z,11.00
2023-04-21T17:13:27.235Z,15.20
2023-04-21T17:14:59.177Z,19.80
2023-04-21T17:16:31.549Z,19.20
2023-04-21T17:18:03.738Z,19.40
2023-04-21T17:19:35.678Z,17.00
2023-04-21T17:21:07.556Z,17.80
2023-04-21T17:22:40.109Z,17.80
2023-04-21T17:24:12.276Z,17.20
2023-04-21T17:25:44.397Z,15.80
2023-04-21T17:27:16.350Z,14.80
2023-04-21T17:28:51.252Z,15.20
2023-04-21T17:30:23.539Z,15.20
2023-04-21T17:31:55.447Z,10.00
2023-04-21T17:33:27.391Z,16.20
2023-04-21T17:34:59.461Z,12.40
2023-04-21T17:36:31.399Z,13.60
2023-04-21T17:38:03.293Z,17.40
2023-04-21T17:39:35.231Z,15.40
2023-04-21T17:41:07.933Z,20.00
2023-04-21T17:42:40.588Z,15.00
2023-04-21T17:44:12.421Z,16.20
2023-04-21T17:45:45.292Z,20.00
2023-04-21T17:47:17.434Z,13.00
2023-04-21T17:48:49.629Z,15.60
2023-04-21T17:50:23.190Z,15.00
2023-04-21T17:51:55.255Z,15.40
2023-04-21T17:53:27.395Z,14.20
2023-04-21T17:54:59.336Z,13.40
2023-04-21T17:56:31.629Z,14.00
2023-04-21T17:58:03.621Z,10.80
2023-04-21T17:59:35.542Z,13.60
2023-04-21T18:01:07.900Z,11.40
2023-04-21T18:02:39.867Z,13.20
2023-04-21T18:04:12.101Z,12.80
2023-04-21T18:05:44.654Z,16.20
2023-04-21T18:07:16.794Z,15.20
2023-04-21T18:08:48.948Z,13.20
2023-04-21T18:10:21.397Z,15.40
2023-04-21T18:11:53.369Z,11.40
2023-04-21T18:13:25.910Z,13.00
2023-04-21T18:14:57.833Z,15.40
2023-04-21T18:16:29.825Z,18.40
2023-04-21T18:18:01.931Z,14.60
2023-04-21T18:19:33.832Z,18.20
2023-04-21T18:21:05.928Z,21.00
2023-04-21T18:22:38.180Z,30.20
2023-04-21T18:24:10.136Z,41.20
2023-04-21T18:25:42.994Z,44.00
2023-04-21T18:27:15.498Z,53.80
2023-04-21T18:28:47.639Z,52.40
2023-04-21T18:30:19.567Z,57.40
2023-04-21T18:31:51.477Z,62.75
2023-04-21T18:33:23.631Z,65.50
2023-04-21T18:34:55.717Z,73.00
2023-04-21T18:36:30.758Z,67.25
2023-04-21T18:38:04.715Z,75.25
2023-04-21T18:39:36.773Z,72.50
2023-04-21T18:41:08.667Z,79.75
2023-04-21T18:42:41.435Z,83.00
2023-04-21T18:44:13.316Z,89.00
2023-04-21T18:45:45.519Z,83.00
2023-04-21T18:47:17.579Z,95.00
2023-04-21T18:48:49.623Z,93.00
2023-04-21T18:50:21.561Z,112.60
2023-04-21T18:51:53.511Z,108.60
2023-04-21T18:53:25.473Z,122.50
2023-04-21T18:54:57.359Z,122.00
2023-04-21T18:56:31.497Z,125.50
2023-04-21T18:58:03.458Z,132.75
2023-04-21T18:59:35.665Z,125.25
2023-04-21T19:01:08.169Z,131.25
2023-04-21T19:02:40.703Z,145.00
2023-04-21T19:04:13.362Z,137.50
2023-04-21T19:05:45.456Z,136.25
2023-04-21T19:07:17.485Z,153.00
2023-04-21T19:08:51.356Z,149.25
2023-04-21T19:10:23.452Z,134.50
2023-04-21T19:11:55.302Z,139.25
2023-04-21T19:13:27.596Z,142.25
2023-04-21T19:14:59.525Z,147.75
2023-04-21T19:16:31.691Z,143.75
2023-04-21T19:18:03.889Z,142.25
2023-04-21T19:19:35.859Z,181.25
2023-04-21T19:21:10.540Z,188.50
2023-04-21T19:22:42.597Z,178.50
2023-04-21T19:24:14.415Z,155.50
2023-04-21T19:25:50.452Z,156.75
2023-04-21T19:27:22.604Z,179.00
2023-04-21T19:28:54.568Z,186.25
2023-04-21T19:30:26.538Z,153.25
2023-04-21T19:31:58.947Z,192.00
2023-04-21T19:33:30.877Z,170.50
2023-04-21T19:35:03.091Z,175.75
2023-04-21T19:36:35.101Z,188.00
2023-04-21T19:38:07.128Z,188.00
2023-04-21T19:39:39.171Z,175.00
2023-04-21T19:41:11.071Z,196.25
2023-04-21T19:42:42.960Z,177.50
2023-04-21T19:44:14.855Z,188.25
2023-04-21T19:45:47.552Z,179.25
2023-04-21T19:47:19.577Z,178.00
2023-04-21T19:48:51.718Z,195.75
2023-04-21T19:50:23.712Z,186.75
2023-04-21T19:51:56.197Z,199.25
2023-04-21T19:53:28.178Z,191.25
2023-04-21T19:55:00.165Z,204.50
2023-04-21T19:56:32.858Z,188.25
2023-04-21T19:58:04.705Z,193.25
2023-04-21T19:59:36.939Z,185.50
2023-04-21T20:01:08.996Z,204.75
2023-04-21T20:02:41.226Z,191.25
2023-04-21T20:04:13.713Z,188.50
2023-04-21T20:05:46.054Z,174.25
2023-04-21T20:07:17.918Z,176.50
2023-04-21T20:08:49.895Z,197.00
2023-04-21T20:10:22.269Z,199.75
2023-04-21T20:11:54.389Z,176.25
2023-04-21T20:13:26.358Z,176.25
2023-04-21T20:14:58.356Z,174.75
2023-04-21T20:16:30.400Z,169.00
2023-04-21T20:18:02.642Z,187.00
2023-04-21T20:19:36.033Z,171.25
2023-04-21T20:21:08.152Z,182.50
2023-04-21T20:22:40.087Z,168.00
2023-04-21T20:24:12.452Z,166.50
2023-04-21T20:25:44.330Z,175.50
2023-04-21T20:27:16.363Z,175.50
2023-04-21T20:28:48.305Z,180.00
2023-04-21T20:30:20.498Z,162.50
2023-04-21T20:31:52.398Z,190.25
2023-04-21T20:33:24.740Z,179.00
2023-04-21T20:34:56.536Z,177.50
2023-04-21T20:36:28.707Z,181.75
2023-04-21T20:38:01.434Z,174.25
2023-04-21T20:39:33.360Z,173.25
2023-04-21T20:41:05.201Z,186.50
2023-04-21T20:42:37.835Z,181.75
2023-04-21T20:44:09.931Z,173.75
2023-04-21T20:45:41.834Z,182.25
2023-04-21T20:47:13.804Z,171.50
2023-04-21T20:48:45.918Z,165.50
2023-04-21T20:50:18.476Z,169.25
2023-04-21T20:52:00.151Z,154.75
2023-04-21T20:53:31.996Z,163.25
2023-04-21T20:55:05.174Z,172.25
2023-04-21T20:56:37.223Z,158.25
2023-04-21T20:58:09.159Z,157.75
2023-04-21T20:59:41.387Z,160.25
2023-04-21T21:01:13.833Z,168.75
2023-04-21T21:02:45.905Z,156.50
2023-04-21T21:04:18.132Z,157.75
2023-04-21T21:05:50.754Z,171.75
2023-04-21T21:07:22.707Z,159.75
2023-04-21T21:08:54.584Z,180.75
2023-04-21T21:10:26.544Z,172.25
2023-04-21T21:11:58.364Z,163.25
2023-04-21T21:13:30.441Z,175.00
2023-04-21T21:15:02.834Z,166.00
2023-04-21T21:16:34.819Z,172.50
2023-04-21T21:18:07.390Z,166.75
2023-04-21T21:19:39.610Z,160.75
2023-04-21T21:21:11.921Z,182.75
2023-04-21T21:22:43.817Z,178.00
2023-04-21T21:24:15.607Z,181.50
2023-04-21T21:25:47.510Z,170.25
2023-04-21T21:27:19.577Z,173.25
2023-04-21T21:28:51.586Z,169.50
2023-04-21T21:30:23.497Z,181.25
2023-04-21T21:31:55.480Z,170.50
2023-04-21T21:33:27.477Z,180.00
2023-04-21T21:34:59.336Z,154.00
2023-04-21T21:36:31.932Z,166.25
2023-04-21T21:38:03.852Z,367.00
2023-04-21T21:39:35.971Z,412.67
2023-04-21T21:41:10.353Z,305.25
2023-04-21T21:42:42.289Z,268.00
2023-04-21T21:44:14.183Z,250.67
2023-04-21T21:45:46.125Z,239.67
2023-04-21T21:47:18.387Z,214.33
2023-04-21T21:48:50.341Z,237.67
2023-04-21T21:50:22.252Z,206.25
2023-04-21T21:51:54.877Z,204.75
2023-04-21T21:53:26.774Z,185.67
2023-04-21T21:54:58.787Z,202.67
2023-04-21T21:56:30.835Z,198.00
2023-04-21T21:58:04.203Z,183.50
2023-04-21T21:59:36.409Z,178.75
2023-04-21T22:01:08.850Z,180.25
2023-04-21T22:02:42.337Z,185.75
2023-04-21T22:04:14.570Z,164.50
2023-04-21T22:05:46.726Z,165.50
2023-04-21T22:07:19.181Z,170.75
2023-04-21T22:08:51.548Z,169.75
2023-04-21T22:10:24.108Z,160.00
2023-04-21T22:11:56.025Z,164.75
2023-04-21T22:13:28.325Z,159.00
2023-04-21T22:15:00.459Z,145.25
2023-04-21T22:16:32.430Z,152.25
2023-04-21T22:18:04.720Z,131.00
2023-04-21T22:19:36.968Z,139.00
2023-04-21T22:21:08.968Z,138.50
2023-04-21T22:22:41.244Z,136.75
2023-04-21T22:24:13.187Z,141.50
2023-04-21T22:25:45.464Z,131.50
2023-04-21T22:27:17.402Z,142.50
2023-04-21T22:28:52.188Z,153.25
2023-04-21T22:30:24.177Z,146.25
2023-04-21T22:31:56.099Z,165.25
2023-04-21T22:33:28.181Z,161.00
